sensor_id;sensor_type;location;lat;lon;timestamp;P1;durP1;ratioP1;P2;durP2;ratioP2
15878;SDS011;61999;51.514;14.614;2022-12-31T00:01:31;3.47;;;2.80;;
15878;SDS011;61999;51.514;14.614;2022-12-31T00:04:00;4.50;;;3.37;;
15878;SDS011;61999;51.514;14.614;2022-12-31T00:06:30;3.67;;;2.73;;
15878;SDS011;61999;51.514;14.614;2022-12-31T00:09:02;5.77;;;3.33;;
15878;SDS011;61999;51.514;14.614;2022-12-31T00:11:35;4.10;;;3.13;;
15878;SDS011;61999;51.514;14.614;2022-12-31T00:14:05;5.60;;;3.53;;
15878;SDS011;61999;51.514;14.614;2022-12-31T00:16:35;4.33;;;3.20;;
15878;SDS011;61999;51.514;14.614;2022-12-31T00:19:07;3.33;;;2.83;;
15878;SDS011;61999;51.514;14.614;2022-12-31T00:21:40;5.43;;;3.93;;
15878;SDS011;61999;51.514;14.614;2022-12-31T00:24:10;3.60;;;3.00;;
15878;SDS011;61999;51.514;14.614;2022-12-31T00:26:41;3.43;;;3.13;;
15878;SDS011;61999;51.514;14.614;2022-12-31T00:29:09;4.40;;;3.00;;
15878;SDS011;61999;51.514;14.614;2022-12-31T00:31:38;4.97;;;3.20;;
15878;SDS011;61999;51.514;14.614;2022-12-31T00:34:06;4.57;;;3.30;;
15878;SDS011;61999;51.514;14.614;2022-12-31T00:36:36;5.47;;;3.50;;
15878;SDS011;61999;51.514;14.614;2022-12-31T00:39:08;4.03;;;3.27;;
15878;SDS011;61999;51.514;14.614;2022-12-31T00:41:37;4.87;;;3.10;;
15878;SDS011;61999;51.514;14.614;2022-12-31T00:44:06;3.20;;;2.87;;
15878;SDS011;61999;51.514;14.614;2022-12-31T00:46:36;5.97;;;3.17;;
15878;SDS011;61999;51.514;14.614;2022-12-31T00:49:03;4.60;;;3.27;;
15878;SDS011;61999;51.514;14.614;2022-12-31T00:51:32;4.00;;;3.07;;
15878;SDS011;61999;51.514;14.614;2022-12-31T00:54:00;4.57;;;2.73;;
15878;SDS011;61999;51.514;14.614;2022-12-31T00:56:29;4.17;;;3.37;;
15878;SDS011;61999;51.514;14.614;2022-12-31T00:58:59;4.57;;;3.17;;
15878;SDS011;61999;51.514;14.614;2022-12-31T01:01:29;4.43;;;2.97;;
15878;SDS011;61999;51.514;14.614;2022-12-31T01:04:00;4.83;;;3.17;;
15878;SDS011;61999;51.514;14.614;2022-12-31T01:06:31;3.30;;;2.97;;
15878;SDS011;61999;51.514;14.614;2022-12-31T01:09:00;3.87;;;3.07;;
15878;SDS011;61999;51.514;14.614;2022-12-31T01:11:29;4.27;;;3.23;;
15878;SDS011;61999;51.514;14.614;2022-12-31T01:14:02;4.57;;;3.47;;
15878;SDS011;61999;51.514;14.614;2022-12-31T01:16:35;3.33;;;2.90;;
15878;SDS011;61999;51.514;14.614;2022-12-31T01:19:08;3.77;;;2.90;;
15878;SDS011;61999;51.514;14.614;2022-12-31T01:21:40;5.07;;;3.53;;
15878;SDS011;61999;51.514;14.614;2022-12-31T01:24:11;4.63;;;2.80;;
15878;SDS011;61999;51.514;14.614;2022-12-31T01:26:40;3.73;;;2.77;;
15878;SDS011;61999;51.514;14.614;2022-12-31T01:29:10;4.17;;;3.17;;
15878;SDS011;61999;51.514;14.614;2022-12-31T01:31:41;3.53;;;3.20;;
15878;SDS011;61999;51.514;14.614;2022-12-31T01:34:10;3.83;;;3.47;;
15878;SDS011;61999;51.514;14.614;2022-12-31T01:36:39;5.20;;;3.20;;
15878;SDS011;61999;51.514;14.614;2022-12-31T01:39:10;6.13;;;3.00;;
15878;SDS011;61999;51.514;14.614;2022-12-31T01:41:39;3.27;;;2.97;;
15878;SDS011;61999;51.514;14.614;2022-12-31T01:47:21;3.10;;;2.80;;
15878;SDS011;61999;51.514;14.614;2022-12-31T01:50:03;3.40;;;3.07;;
15878;SDS011;61999;51.514;14.614;2022-12-31T01:52:43;4.37;;;2.80;;
15878;SDS011;61999;51.514;14.614;2022-12-31T01:55:18;4.17;;;2.87;;
15878;SDS011;61999;51.514;14.614;2022-12-31T01:57:51;3.27;;;2.87;;
15878;SDS011;61999;51.514;14.614;2022-12-31T02:00:26;3.17;;;2.80;;
15878;SDS011;61999;51.514;14.614;2022-12-31T02:02:56;3.07;;;2.57;;
15878;SDS011;61999;51.514;14.614;2022-12-31T02:05:26;4.73;;;2.53;;
15878;SDS011;61999;51.514;14.614;2022-12-31T02:08:00;3.23;;;2.47;;
15878;SDS011;61999;51.514;14.614;2022-12-31T02:10:30;3.80;;;2.90;;
15878;SDS011;61999;51.514;14.614;2022-12-31T02:12:59;4.97;;;3.03;;
15878;SDS011;61999;51.514;14.614;2022-12-31T02:15:45;3.27;;;2.60;;
15878;SDS011;61999;51.514;14.614;2022-12-31T02:18:28;4.40;;;2.40;;
15878;SDS011;61999;51.514;14.614;2022-12-31T02:21:29;4.73;;;2.43;;
15878;SDS011;61999;51.514;14.614;2022-12-31T02:27:30;2.40;;;2.20;;
15878;SDS011;61999;51.514;14.614;2022-12-31T02:30:17;3.43;;;2.67;;
15878;SDS011;61999;51.514;14.614;2022-12-31T02:32:55;2.67;;;2.40;;
15878;SDS011;61999;51.514;14.614;2022-12-31T02:35:42;2.57;;;2.37;;
15878;SDS011;61999;51.514;14.614;2022-12-31T02:38:18;3.57;;;2.33;;
15878;SDS011;61999;51.514;14.614;2022-12-31T02:40:52;3.30;;;2.43;;
15878;SDS011;61999;51.514;14.614;2022-12-31T02:43:21;3.03;;;2.23;;
15878;SDS011;61999;51.514;14.614;2022-12-31T02:45:54;2.80;;;2.50;;
15878;SDS011;61999;51.514;14.614;2022-12-31T02:48:38;2.53;;;2.30;;
15878;SDS011;61999;51.514;14.614;2022-12-31T02:51:17;2.67;;;2.00;;
15878;SDS011;61999;51.514;14.614;2022-12-31T02:54:10;3.03;;;2.30;;
15878;SDS011;61999;51.514;14.614;2022-12-31T02:56:58;3.57;;;2.70;;
15878;SDS011;61999;51.514;14.614;2022-12-31T02:59:37;2.67;;;2.47;;
15878;SDS011;61999;51.514;14.614;2022-12-31T03:02:37;2.43;;;2.07;;
15878;SDS011;61999;51.514;14.614;2022-12-31T03:05:12;2.20;;;2.00;;
15878;SDS011;61999;51.514;14.614;2022-12-31T03:07:43;3.90;;;2.10;;
15878;SDS011;61999;51.514;14.614;2022-12-31T03:10:13;2.40;;;1.90;;
15878;SDS011;61999;51.514;14.614;2022-12-31T03:12:42;2.87;;;2.17;;
15878;SDS011;61999;51.514;14.614;2022-12-31T03:15:14;2.83;;;2.47;;
15878;SDS011;61999;51.514;14.614;2022-12-31T03:17:50;2.60;;;2.00;;
15878;SDS011;61999;51.514;14.614;2022-12-31T03:20:25;2.80;;;2.23;;
15878;SDS011;61999;51.514;14.614;2022-12-31T03:23:17;4.33;;;2.50;;
15878;SDS011;61999;51.514;14.614;2022-12-31T03:25:49;2.63;;;2.30;;
15878;SDS011;61999;51.514;14.614;2022-12-31T03:28:19;2.77;;;2.17;;
15878;SDS011;61999;51.514;14.614;2022-12-31T03:30:51;2.37;;;1.70;;
15878;SDS011;61999;51.514;14.614;2022-12-31T03:33:24;2.33;;;2.13;;
15878;SDS011;61999;51.514;14.614;2022-12-31T03:35:56;2.53;;;2.17;;
15878;SDS011;61999;51.514;14.614;2022-12-31T03:38:25;2.43;;;1.97;;
15878;SDS011;61999;51.514;14.614;2022-12-31T03:40:54;2.20;;;2.00;;
15878;SDS011;61999;51.514;14.614;2022-12-31T03:43:22;2.87;;;2.13;;
15878;SDS011;61999;51.514;14.614;2022-12-31T03:45:51;2.33;;;2.13;;
15878;SDS011;61999;51.514;14.614;2022-12-31T03:48:21;1.60;;;1.50;;
15878;SDS011;61999;51.514;14.614;2022-12-31T03:50:52;2.30;;;1.93;;
15878;SDS011;61999;51.514;14.614;2022-12-31T03:53:20;2.47;;;1.90;;
15878;SDS011;61999;51.514;14.614;2022-12-31T03:55:50;2.90;;;1.87;;
15878;SDS011;61999;51.514;14.614;2022-12-31T03:58:20;4.00;;;2.53;;
15878;SDS011;61999;51.514;14.614;2022-12-31T04:00:49;5.07;;;2.47;;
15878;SDS011;61999;51.514;14.614;2022-12-31T04:03:21;3.03;;;2.50;;
15878;SDS011;61999;51.514;14.614;2022-12-31T04:05:54;4.20;;;3.50;;
15878;SDS011;61999;51.514;14.614;2022-12-31T04:08:23;2.83;;;2.50;;
15878;SDS011;61999;51.514;14.614;2022-12-31T04:10:52;5.33;;;3.73;;
15878;SDS011;61999;51.514;14.614;2022-12-31T04:13:20;5.97;;;5.20;;
15878;SDS011;61999;51.514;14.614;2022-12-31T04:15:50;3.83;;;3.53;;
15878;SDS011;61999;51.514;14.614;2022-12-31T04:18:19;2.17;;;1.97;;
15878;SDS011;61999;51.514;14.614;2022-12-31T04:20:48;2.00;;;1.90;;
15878;SDS011;61999;51.514;14.614;2022-12-31T04:23:18;3.00;;;2.40;;
15878;SDS011;61999;51.514;14.614;2022-12-31T04:25:46;4.17;;;3.77;;
15878;SDS011;61999;51.514;14.614;2022-12-31T04:28:15;2.50;;;2.07;;
15878;SDS011;61999;51.514;14.614;2022-12-31T04:30:44;2.47;;;1.80;;
15878;SDS011;61999;51.514;14.614;2022-12-31T04:33:13;3.20;;;2.90;;
15878;SDS011;61999;51.514;14.614;2022-12-31T04:35:42;4.70;;;4.30;;
15878;SDS011;61999;51.514;14.614;2022-12-31T04:38:11;5.30;;;4.80;;
15878;SDS011;61999;51.514;14.614;2022-12-31T04:40:41;2.63;;;2.43;;
15878;SDS011;61999;51.514;14.614;2022-12-31T04:43:26;5.83;;;4.40;;
15878;SDS011;61999;51.514;14.614;2022-12-31T04:45:55;3.47;;;2.53;;
15878;SDS011;61999;51.514;14.614;2022-12-31T04:48:24;3.67;;;3.07;;
15878;SDS011;61999;51.514;14.614;2022-12-31T04:50:53;1.60;;;1.50;;
15878;SDS011;61999;51.514;14.614;2022-12-31T04:53:21;3.07;;;2.50;;
15878;SDS011;61999;51.514;14.614;2022-12-31T04:55:52;3.50;;;3.17;;
15878;SDS011;61999;51.514;14.614;2022-12-31T04:58:21;3.67;;;3.20;;
15878;SDS011;61999;51.514;14.614;2022-12-31T05:00:50;3.37;;;2.90;;
15878;SDS011;61999;51.514;14.614;2022-12-31T05:03:21;5.63;;;4.67;;
15878;SDS011;61999;51.514;14.614;2022-12-31T05:05:52;2.47;;;2.20;;
15878;SDS011;61999;51.514;14.614;2022-12-31T05:08:26;3.40;;;2.37;;
15878;SDS011;61999;51.514;14.614;2022-12-31T05:10:57;2.53;;;2.27;;
15878;SDS011;61999;51.514;14.614;2022-12-31T05:13:28;2.20;;;2.00;;
15878;SDS011;61999;51.514;14.614;2022-12-31T05:15:58;3.47;;;2.77;;
15878;SDS011;61999;51.514;14.614;2022-12-31T05:18:26;3.73;;;3.30;;
15878;SDS011;61999;51.514;14.614;2022-12-31T05:20:58;3.70;;;3.40;;
15878;SDS011;61999;51.514;14.614;2022-12-31T05:23:26;4.70;;;4.27;;
15878;SDS011;61999;51.514;14.614;2022-12-31T05:25:57;4.03;;;2.53;;
15878;SDS011;61999;51.514;14.614;2022-12-31T05:28:25;2.73;;;2.10;;
15878;SDS011;61999;51.514;14.614;2022-12-31T05:30:54;4.27;;;3.23;;
15878;SDS011;61999;51.514;14.614;2022-12-31T05:33:23;4.53;;;3.60;;
15878;SDS011;61999;51.514;14.614;2022-12-31T05:35:54;6.20;;;3.93;;
15878;SDS011;61999;51.514;14.614;2022-12-31T05:38:24;4.57;;;3.17;;
15878;SDS011;61999;51.514;14.614;2022-12-31T05:41:01;6.27;;;3.63;;
15878;SDS011;61999;51.514;14.614;2022-12-31T05:43:33;10.13;;;6.70;;
15878;SDS011;61999;51.514;14.614;2022-12-31T05:46:02;6.43;;;4.50;;
15878;SDS011;61999;51.514;14.614;2022-12-31T05:48:31;5.83;;;4.03;;
15878;SDS011;61999;51.514;14.614;2022-12-31T05:51:01;8.03;;;5.00;;
15878;SDS011;61999;51.514;14.614;2022-12-31T05:53:29;4.93;;;3.73;;
15878;SDS011;61999;51.514;14.614;2022-12-31T05:55:59;3.00;;;2.67;;
15878;SDS011;61999;51.514;14.614;2022-12-31T05:58:29;2.37;;;1.70;;
15878;SDS011;61999;51.514;14.614;2022-12-31T06:00:58;2.20;;;1.70;;
15878;SDS011;61999;51.514;14.614;2022-12-31T06:03:26;2.50;;;2.30;;
15878;SDS011;61999;51.514;14.614;2022-12-31T06:05:54;2.00;;;1.80;;
15878;SDS011;61999;51.514;14.614;2022-12-31T06:08:23;3.53;;;2.90;;
15878;SDS011;61999;51.514;14.614;2022-12-31T06:10:51;3.83;;;2.60;;
15878;SDS011;61999;51.514;14.614;2022-12-31T06:13:21;2.70;;;2.13;;
15878;SDS011;61999;51.514;14.614;2022-12-31T06:15:49;5.47;;;3.07;;
15878;SDS011;61999;51.514;14.614;2022-12-31T06:18:17;3.07;;;1.97;;
15878;SDS011;61999;51.514;14.614;2022-12-31T06:20:46;2.63;;;2.20;;
15878;SDS011;61999;51.514;14.614;2022-12-31T06:23:15;1.83;;;1.50;;
15878;SDS011;61999;51.514;14.614;2022-12-31T06:25:43;2.60;;;2.20;;
15878;SDS011;61999;51.514;14.614;2022-12-31T06:28:15;2.80;;;2.37;;
15878;SDS011;61999;51.514;14.614;2022-12-31T06:30:46;3.00;;;2.27;;
15878;SDS011;61999;51.514;14.614;2022-12-31T06:33:15;2.60;;;2.03;;
15878;SDS011;61999;51.514;14.614;2022-12-31T06:35:44;3.77;;;2.10;;
15878;SDS011;61999;51.514;14.614;2022-12-31T06:38:12;2.77;;;2.00;;
15878;SDS011;61999;51.514;14.614;2022-12-31T06:40:40;2.83;;;1.97;;
15878;SDS011;61999;51.514;14.614;2022-12-31T06:43:09;1.67;;;1.47;;
15878;SDS011;61999;51.514;14.614;2022-12-31T06:45:37;3.33;;;2.00;;
15878;SDS011;61999;51.514;14.614;2022-12-31T06:48:07;2.10;;;1.87;;
15878;SDS011;61999;51.514;14.614;2022-12-31T06:50:36;2.53;;;1.97;;
15878;SDS011;61999;51.514;14.614;2022-12-31T06:53:05;1.53;;;1.43;;
15878;SDS011;61999;51.514;14.614;2022-12-31T06:55:34;1.87;;;1.37;;
15878;SDS011;61999;51.514;14.614;2022-12-31T06:58:04;1.57;;;1.30;;
15878;SDS011;61999;51.514;14.614;2022-12-31T07:00:36;2.07;;;1.80;;
15878;SDS011;61999;51.514;14.614;2022-12-31T07:03:18;2.10;;;1.67;;
15878;SDS011;61999;51.514;14.614;2022-12-31T07:06:04;1.73;;;1.63;;
15878;SDS011;61999;51.514;14.614;2022-12-31T07:08:44;1.67;;;1.50;;
15878;SDS011;61999;51.514;14.614;2022-12-31T07:11:26;1.87;;;1.67;;
15878;SDS011;61999;51.514;14.614;2022-12-31T07:14:10;2.70;;;2.20;;
15878;SDS011;61999;51.514;14.614;2022-12-31T07:16:58;1.87;;;1.73;;
15878;SDS011;61999;51.514;14.614;2022-12-31T07:19:47;2.10;;;1.90;;
15878;SDS011;61999;51.514;14.614;2022-12-31T07:22:27;1.60;;;1.50;;
15878;SDS011;61999;51.514;14.614;2022-12-31T07:24:57;1.63;;;1.53;;
15878;SDS011;61999;51.514;14.614;2022-12-31T07:27:43;1.77;;;1.43;;
15878;SDS011;61999;51.514;14.614;2022-12-31T07:30:32;2.83;;;2.43;;
15878;SDS011;61999;51.514;14.614;2022-12-31T07:33:16;3.57;;;2.23;;
15878;SDS011;61999;51.514;14.614;2022-12-31T07:36:18;1.70;;;1.60;;
15878;SDS011;61999;51.514;14.614;2022-12-31T07:39:07;2.00;;;1.50;;
15878;SDS011;61999;51.514;14.614;2022-12-31T07:41:43;1.67;;;1.50;;
15878;SDS011;61999;51.514;14.614;2022-12-31T07:44:26;1.43;;;1.33;;
15878;SDS011;61999;51.514;14.614;2022-12-31T07:47:13;4.30;;;2.83;;
15878;SDS011;61999;51.514;14.614;2022-12-31T07:49:49;3.67;;;1.80;;
15878;SDS011;61999;51.514;14.614;2022-12-31T07:52:22;3.03;;;1.90;;
15878;SDS011;61999;51.514;14.614;2022-12-31T07:54:57;1.97;;;1.67;;
15878;SDS011;61999;51.514;14.614;2022-12-31T07:57:27;3.30;;;2.10;;
15878;SDS011;61999;51.514;14.614;2022-12-31T08:00:07;4.53;;;2.43;;
15878;SDS011;61999;51.514;14.614;2022-12-31T08:02:54;4.83;;;3.70;;
15878;SDS011;61999;51.514;14.614;2022-12-31T08:05:39;1.90;;;1.67;;
15878;SDS011;61999;51.514;14.614;2022-12-31T08:08:23;2.43;;;2.23;;
15878;SDS011;61999;51.514;14.614;2022-12-31T08:11:06;2.43;;;2.00;;
15878;SDS011;61999;51.514;14.614;2022-12-31T08:13:44;2.77;;;2.23;;
15878;SDS011;61999;51.514;14.614;2022-12-31T08:16:15;2.10;;;1.63;;
15878;SDS011;61999;51.514;14.614;2022-12-31T08:18:49;2.23;;;1.50;;
15878;SDS011;61999;51.514;14.614;2022-12-31T08:21:22;3.97;;;2.20;;
15878;SDS011;61999;51.514;14.614;2022-12-31T08:24:09;1.63;;;1.03;;
15878;SDS011;61999;51.514;14.614;2022-12-31T08:26:56;2.57;;;1.47;;
15878;SDS011;61999;51.514;14.614;2022-12-31T08:29:40;1.90;;;0.97;;
15878;SDS011;61999;51.514;14.614;2022-12-31T08:32:29;2.33;;;1.30;;
15878;SDS011;61999;51.514;14.614;2022-12-31T08:35:10;1.50;;;1.00;;
15878;SDS011;61999;51.514;14.614;2022-12-31T08:38:01;1.07;;;1.07;;
15878;SDS011;61999;51.514;14.614;2022-12-31T08:40:46;1.57;;;1.43;;
15878;SDS011;61999;51.514;14.614;2022-12-31T08:46:35;1.00;;;0.97;;
15878;SDS011;61999;51.514;14.614;2022-12-31T08:49:13;4.20;;;3.00;;
15878;SDS011;61999;51.514;14.614;2022-12-31T08:51:42;1.70;;;1.57;;
15878;SDS011;61999;51.514;14.614;2022-12-31T08:54:11;2.57;;;1.50;;
15878;SDS011;61999;51.514;14.614;2022-12-31T08:56:43;1.30;;;1.20;;
15878;SDS011;61999;51.514;14.614;2022-12-31T08:59:23;1.60;;;1.40;;
15878;SDS011;61999;51.514;14.614;2022-12-31T09:02:18;1.60;;;1.50;;
15878;SDS011;61999;51.514;14.614;2022-12-31T09:05:15;1.63;;;1.33;;
15878;SDS011;61999;51.514;14.614;2022-12-31T09:07:56;1.73;;;1.03;;
15878;SDS011;61999;51.514;14.614;2022-12-31T09:10:43;1.90;;;1.70;;
15878;SDS011;61999;51.514;14.614;2022-12-31T09:13:29;1.73;;;1.00;;
15878;SDS011;61999;51.514;14.614;2022-12-31T09:16:16;0.97;;;0.97;;
15878;SDS011;61999;51.514;14.614;2022-12-31T09:18:54;1.00;;;1.00;;
15878;SDS011;61999;51.514;14.614;2022-12-31T09:21:24;1.23;;;1.13;;
15878;SDS011;61999;51.514;14.614;2022-12-31T09:23:53;1.33;;;0.97;;
15878;SDS011;61999;51.514;14.614;2022-12-31T09:26:28;1.93;;;1.00;;
15878;SDS011;61999;51.514;14.614;2022-12-31T09:29:16;1.00;;;1.00;;
15878;SDS011;61999;51.514;14.614;2022-12-31T09:32:02;1.40;;;1.30;;
15878;SDS011;61999;51.514;14.614;2022-12-31T09:34:46;2.00;;;1.30;;
15878;SDS011;61999;51.514;14.614;2022-12-31T09:37:27;1.77;;;1.17;;
15878;SDS011;61999;51.514;14.614;2022-12-31T09:40:19;0.80;;;0.80;;
15878;SDS011;61999;51.514;14.614;2022-12-31T09:43:40;1.30;;;1.20;;
15878;SDS011;61999;51.514;14.614;2022-12-31T09:47:22;1.20;;;1.10;;
15878;SDS011;61999;51.514;14.614;2022-12-31T09:50:33;2.50;;;1.40;;
15878;SDS011;61999;51.514;14.614;2022-12-31T09:53:37;4.30;;;1.10;;
15878;SDS011;61999;51.514;14.614;2022-12-31T09:56:22;0.70;;;0.70;;
15878;SDS011;61999;51.514;14.614;2022-12-31T09:58:59;1.70;;;0.90;;
15878;SDS011;61999;51.514;14.614;2022-12-31T10:01:41;1.20;;;1.10;;
15878;SDS011;61999;51.514;14.614;2022-12-31T10:04:26;3.23;;;1.10;;
15878;SDS011;61999;51.514;14.614;2022-12-31T10:07:14;1.33;;;1.23;;
15878;SDS011;61999;51.514;14.614;2022-12-31T10:10:05;1.90;;;1.50;;
15878;SDS011;61999;51.514;14.614;2022-12-31T10:19:16;1.83;;;1.20;;
15878;SDS011;61999;51.514;14.614;2022-12-31T10:22:09;1.40;;;1.30;;
15878;SDS011;61999;51.514;14.614;2022-12-31T10:25:17;1.90;;;1.50;;
15878;SDS011;61999;51.514;14.614;2022-12-31T10:28:00;2.60;;;1.40;;
15878;SDS011;61999;51.514;14.614;2022-12-31T10:30:47;1.30;;;1.20;;
15878;SDS011;61999;51.514;14.614;2022-12-31T10:33:41;1.37;;;1.23;;
15878;SDS011;61999;51.514;14.614;2022-12-31T10:36:22;2.03;;;1.50;;
15878;SDS011;61999;51.514;14.614;2022-12-31T10:39:13;2.83;;;1.20;;
15878;SDS011;61999;51.514;14.614;2022-12-31T10:42:18;1.40;;;1.20;;
15878;SDS011;61999;51.514;14.614;2022-12-31T10:52:25;1.63;;;1.30;;
15878;SDS011;61999;51.514;14.614;2022-12-31T10:55:35;1.50;;;1.30;;
15878;SDS011;61999;51.514;14.614;2022-12-31T11:02:22;0.77;;;0.73;;
15878;SDS011;61999;51.514;14.614;2022-12-31T11:06:10;1.03;;;0.50;;
15878;SDS011;61999;51.514;14.614;2022-12-31T11:09:33;0.30;;;0.30;;
15878;SDS011;61999;51.514;14.614;2022-12-31T11:12:31;0.57;;;0.50;;
15878;SDS011;61999;51.514;14.614;2022-12-31T11:15:40;2.63;;;0.97;;
15878;SDS011;61999;51.514;14.614;2022-12-31T11:18:32;0.40;;;0.40;;
15878;SDS011;61999;51.514;14.614;2022-12-31T11:21:21;0.53;;;0.53;;
15878;SDS011;61999;51.514;14.614;2022-12-31T11:24:11;0.53;;;0.50;;
15878;SDS011;61999;51.514;14.614;2022-12-31T11:27:06;3.57;;;0.80;;
15878;SDS011;61999;51.514;14.614;2022-12-31T11:29:55;0.73;;;0.53;;
15878;SDS011;61999;51.514;14.614;2022-12-31T11:32:42;1.70;;;0.50;;
15878;SDS011;61999;51.514;14.614;2022-12-31T11:35:30;0.93;;;0.53;;
15878;SDS011;61999;51.514;14.614;2022-12-31T11:38:14;1.37;;;0.50;;
15878;SDS011;61999;51.514;14.614;2022-12-31T11:40:54;1.93;;;0.40;;
15878;SDS011;61999;51.514;14.614;2022-12-31T11:43:31;0.53;;;0.53;;
15878;SDS011;61999;51.514;14.614;2022-12-31T11:46:17;4.23;;;0.93;;
15878;SDS011;61999;51.514;14.614;2022-12-31T11:49:23;0.60;;;0.60;;
15878;SDS011;61999;51.514;14.614;2022-12-31T11:52:26;0.60;;;0.40;;
15878;SDS011;61999;51.514;14.614;2022-12-31T11:55:25;2.73;;;0.70;;
15878;SDS011;61999;51.514;14.614;2022-12-31T11:58:12;2.20;;;0.60;;
15878;SDS011;61999;51.514;14.614;2022-12-31T12:00:48;0.40;;;0.40;;
15878;SDS011;61999;51.514;14.614;2022-12-31T12:03:22;1.70;;;0.40;;
15878;SDS011;61999;51.514;14.614;2022-12-31T12:05:52;0.40;;;0.40;;
15878;SDS011;61999;51.514;14.614;2022-12-31T12:08:25;0.70;;;0.50;;
15878;SDS011;61999;51.514;14.614;2022-12-31T12:11:00;0.67;;;0.60;;
15878;SDS011;61999;51.514;14.614;2022-12-31T12:13:33;0.53;;;0.53;;
15878;SDS011;61999;51.514;14.614;2022-12-31T12:16:07;1.67;;;0.70;;
15878;SDS011;61999;51.514;14.614;2022-12-31T12:18:38;1.93;;;0.60;;
15878;SDS011;61999;51.514;14.614;2022-12-31T12:21:10;2.07;;;0.60;;
15878;SDS011;61999;51.514;14.614;2022-12-31T12:23:52;1.03;;;0.60;;
15878;SDS011;61999;51.514;14.614;2022-12-31T12:26:26;1.03;;;0.50;;
15878;SDS011;61999;51.514;14.614;2022-12-31T12:29:07;0.70;;;0.70;;
15878;SDS011;61999;51.514;14.614;2022-12-31T12:31:38;0.50;;;0.50;;
15878;SDS011;61999;51.514;14.614;2022-12-31T12:34:20;0.33;;;0.33;;
15878;SDS011;61999;51.514;14.614;2022-12-31T12:36:51;1.70;;;0.60;;
15878;SDS011;61999;51.514;14.614;2022-12-31T12:39:20;0.60;;;0.53;;
15878;SDS011;61999;51.514;14.614;2022-12-31T12:42:01;1.40;;;0.60;;
15878;SDS011;61999;51.514;14.614;2022-12-31T12:44:31;1.97;;;0.50;;
15878;SDS011;61999;51.514;14.614;2022-12-31T12:47:02;1.17;;;0.60;;
15878;SDS011;61999;51.514;14.614;2022-12-31T12:49:36;0.50;;;0.50;;
15878;SDS011;61999;51.514;14.614;2022-12-31T12:52:12;1.53;;;0.83;;
15878;SDS011;61999;51.514;14.614;2022-12-31T12:55:06;1.17;;;0.70;;
15878;SDS011;61999;51.514;14.614;2022-12-31T12:57:47;1.30;;;0.60;;
15878;SDS011;61999;51.514;14.614;2022-12-31T13:00:28;0.70;;;0.67;;
15878;SDS011;61999;51.514;14.614;2022-12-31T13:03:18;0.97;;;0.63;;
15878;SDS011;61999;51.514;14.614;2022-12-31T13:06:47;0.60;;;0.50;;
15878;SDS011;61999;51.514;14.614;2022-12-31T13:09:36;0.73;;;0.50;;
15878;SDS011;61999;51.514;14.614;2022-12-31T13:12:22;2.23;;;0.63;;
15878;SDS011;61999;51.514;14.614;2022-12-31T13:15:15;0.93;;;0.70;;
15878;SDS011;61999;51.514;14.614;2022-12-31T13:17:54;0.70;;;0.70;;
15878;SDS011;61999;51.514;14.614;2022-12-31T13:20:39;1.90;;;0.67;;
15878;SDS011;61999;51.514;14.614;2022-12-31T13:23:16;1.80;;;0.80;;
15878;SDS011;61999;51.514;14.614;2022-12-31T13:25:55;0.50;;;0.50;;
15878;SDS011;61999;51.514;14.614;2022-12-31T13:28:33;1.97;;;0.67;;
15878;SDS011;61999;51.514;14.614;2022-12-31T13:31:09;0.60;;;0.60;;
15878;SDS011;61999;51.514;14.614;2022-12-31T13:33:44;0.90;;;0.80;;
15878;SDS011;61999;51.514;14.614;2022-12-31T13:36:22;0.47;;;0.47;;
15878;SDS011;61999;51.514;14.614;2022-12-31T13:38:55;0.80;;;0.80;;
15878;SDS011;61999;51.514;14.614;2022-12-31T13:41:29;1.33;;;0.50;;
15878;SDS011;61999;51.514;14.614;2022-12-31T13:44:09;0.97;;;0.60;;
15878;SDS011;61999;51.514;14.614;2022-12-31T13:46:45;0.70;;;0.60;;
15878;SDS011;61999;51.514;14.614;2022-12-31T13:49:20;1.33;;;0.80;;
15878;SDS011;61999;51.514;14.614;2022-12-31T13:52:00;1.03;;;0.53;;
15878;SDS011;61999;51.514;14.614;2022-12-31T13:54:40;0.87;;;0.63;;
15878;SDS011;61999;51.514;14.614;2022-12-31T13:57:21;0.97;;;0.70;;
15878;SDS011;61999;51.514;14.614;2022-12-31T14:00:08;1.30;;;0.90;;
15878;SDS011;61999;51.514;14.614;2022-12-31T14:02:53;0.60;;;0.60;;
15878;SDS011;61999;51.514;14.614;2022-12-31T14:05:36;0.90;;;0.67;;
15878;SDS011;61999;51.514;14.614;2022-12-31T14:08:16;4.30;;;1.17;;
15878;SDS011;61999;51.514;14.614;2022-12-31T14:10:50;1.10;;;0.40;;
15878;SDS011;61999;51.514;14.614;2022-12-31T14:13:37;1.07;;;0.60;;
15878;SDS011;61999;51.514;14.614;2022-12-31T14:16:23;0.60;;;0.60;;
15878;SDS011;61999;51.514;14.614;2022-12-31T14:19:09;1.63;;;0.70;;
15878;SDS011;61999;51.514;14.614;2022-12-31T14:21:50;0.90;;;0.67;;
15878;SDS011;61999;51.514;14.614;2022-12-31T14:24:33;0.50;;;0.50;;
15878;SDS011;61999;51.514;14.614;2022-12-31T14:27:12;0.63;;;0.63;;
15878;SDS011;61999;51.514;14.614;2022-12-31T14:29:48;0.80;;;0.53;;
15878;SDS011;61999;51.514;14.614;2022-12-31T14:32:31;1.83;;;0.97;;
15878;SDS011;61999;51.514;14.614;2022-12-31T14:35:25;1.70;;;0.60;;
15878;SDS011;61999;51.514;14.614;2022-12-31T14:38:08;1.37;;;0.63;;
15878;SDS011;61999;51.514;14.614;2022-12-31T14:40:55;0.70;;;0.70;;
15878;SDS011;61999;51.514;14.614;2022-12-31T14:43:40;0.80;;;0.80;;
15878;SDS011;61999;51.514;14.614;2022-12-31T14:46:23;1.37;;;0.50;;
15878;SDS011;61999;51.514;14.614;2022-12-31T14:49:06;5.43;;;0.70;;
15878;SDS011;61999;51.514;14.614;2022-12-31T14:52:06;0.63;;;0.63;;
15878;SDS011;61999;51.514;14.614;2022-12-31T14:54:55;0.70;;;0.70;;
15878;SDS011;61999;51.514;14.614;2022-12-31T14:57:34;1.53;;;0.67;;
15878;SDS011;61999;51.514;14.614;2022-12-31T15:00:21;1.50;;;0.70;;
15878;SDS011;61999;51.514;14.614;2022-12-31T15:02:56;0.87;;;0.57;;
15878;SDS011;61999;51.514;14.614;2022-12-31T15:05:27;1.00;;;0.70;;
15878;SDS011;61999;51.514;14.614;2022-12-31T15:08:03;1.00;;;0.70;;
15878;SDS011;61999;51.514;14.614;2022-12-31T15:11:05;0.60;;;0.60;;
15878;SDS011;61999;51.514;14.614;2022-12-31T15:13:55;0.60;;;0.60;;
15878;SDS011;61999;51.514;14.614;2022-12-31T15:16:57;0.80;;;0.80;;
15878;SDS011;61999;51.514;14.614;2022-12-31T15:19:54;1.20;;;0.60;;
15878;SDS011;61999;51.514;14.614;2022-12-31T15:22:51;2.20;;;0.60;;
15878;SDS011;61999;51.514;14.614;2022-12-31T15:25:23;0.97;;;0.90;;
15878;SDS011;61999;51.514;14.614;2022-12-31T15:28:01;0.60;;;0.53;;
15878;SDS011;61999;51.514;14.614;2022-12-31T15:30:35;0.50;;;0.50;;
15878;SDS011;61999;51.514;14.614;2022-12-31T15:33:15;0.80;;;0.57;;
15878;SDS011;61999;51.514;14.614;2022-12-31T15:35:54;2.93;;;0.80;;
15878;SDS011;61999;51.514;14.614;2022-12-31T15:38:32;0.80;;;0.70;;
15878;SDS011;61999;51.514;14.614;2022-12-31T15:41:24;0.60;;;0.60;;
15878;SDS011;61999;51.514;14.614;2022-12-31T15:44:05;0.60;;;0.53;;
15878;SDS011;61999;51.514;14.614;2022-12-31T15:46:47;1.83;;;0.80;;
15878;SDS011;61999;51.514;14.614;2022-12-31T15:49:22;0.70;;;0.70;;
15878;SDS011;61999;51.514;14.614;2022-12-31T15:51:53;1.73;;;1.00;;
15878;SDS011;61999;51.514;14.614;2022-12-31T15:54:29;1.17;;;0.80;;
15878;SDS011;61999;51.514;14.614;2022-12-31T15:57:04;4.00;;;1.00;;
15878;SDS011;61999;51.514;14.614;2022-12-31T15:59:42;1.80;;;0.80;;
15878;SDS011;61999;51.514;14.614;2022-12-31T16:02:17;0.90;;;0.67;;
15878;SDS011;61999;51.514;14.614;2022-12-31T16:04:50;1.63;;;0.90;;
15878;SDS011;61999;51.514;14.614;2022-12-31T16:07:21;1.53;;;0.90;;